Aérodrome :
LOGIN :

S'inscrire | Disclaimer

   EN    FR    IT 

 










Légende :    VFR   VFR Marginal   IFR   IFR Intensif   IFR Très Intensif
Visi : 
Plafond : 
>= 8 km
>= 3000ft
5 à 8 km
1000 à 3000 ft
1500m à 5 km
500 à 1000 ft
800 à 1500m
200 à 500 ft
< 800m
< 200 ft
Symboles :   Orages  Brouillard  Fortes neiges  Fortes précipitations  Vent > 20 kt
SIGMETs :   Divers  Orages  Givrage  Turbulence  Onde Orograph.  Cendres Volcan.







- Altitude de l'aérodrome : 106 ft
- Code IATA : NRN


EDLV - Weeze

DERNIER METAR :
  • 191020Z 26012KT 9999 SCT039 08/05 Q1017

METARs EXPIRÉS :
  • 190950Z 27012KT CAVOK 07/04 Q1017
  • 190920Z 26009KT CAVOK 06/04 Q1016
  • 190850Z 27009KT 240V310 CAVOK 05/04 Q1016
  • 190820Z 26009KT CAVOK 05/03 Q1016
  • 190750Z 25008KT CAVOK 04/03 Q1016

TAF TAF EDLV
Valide du 19 à 06h jusqu'au 20 à 06h UTC


190500Z 1906/2006 27006KT CAVOK
BECMG 1907/1910 27013KT
BECMG 1916/1918 26008KT
Pas de NOTAMs connus pour ce terrain.



MET'MAP, la Météo Aéronautique d'un coup d'oeil ! - Copyright ORBIFLY Décembre 2007 - Disclaimer

ORBIFLY MET'MAP TEAM :

Programmation & Développement : Alexandra Zaïnal
Conception & Développement : Baudouin d'Aumeries
Co-Programmation & Développement : Marc-Olivier Méhu
Soutien technique & logistique : Manuel Goepfert

Contact : metmap@orbifly.com




SOURCES & CREDITS :

   NOAA